createdAt,value
2022-11-23T00:02:25.167Z,96761.81
2022-11-23T00:04:55.281Z,96760.41
2022-11-23T00:07:25.418Z,96764.47
2022-11-23T00:09:55.661Z,96764.16
2022-11-23T00:12:28.361Z,96770.75
2022-11-23T00:14:58.424Z,96766.34
2022-11-23T00:17:28.446Z,96763.16
2022-11-23T00:19:58.547Z,96760.59
2022-11-23T00:22:28.722Z,96761.56
2022-11-23T00:24:58.815Z,96762.97
2022-11-23T00:27:31.521Z,96763.09
2022-11-23T00:30:01.723Z,96763.09
2022-11-23T00:32:33.141Z,96759.66
2022-11-23T00:35:03.289Z,96756.53
2022-11-23T00:37:34.487Z,96757.75
2022-11-23T00:40:04.544Z,96765.94
2022-11-23T00:42:38.352Z,96758.41
2022-11-23T00:45:10.304Z,96755.28
2022-11-23T00:47:40.944Z,96767.53
2022-11-23T00:50:12.256Z,96762.75
2022-11-23T00:52:42.382Z,96757.16
2022-11-23T00:55:12.931Z,96760.28
2022-11-23T00:57:45.615Z,96761.38
2022-11-23T01:00:17.100Z,96758.41
2022-11-23T01:02:47.175Z,96761.22
2022-11-23T01:05:17.343Z,96763.16
2022-11-23T01:07:47.429Z,96760.41
2022-11-23T01:10:17.654Z,96771.03
2022-11-23T01:12:50.315Z,96764.72
2022-11-23T01:15:20.446Z,96768.28
2022-11-23T01:17:50.550Z,96774.09
2022-11-23T01:20:20.845Z,96774.03
2022-11-23T01:22:51.357Z,96776.41
2022-11-23T01:25:21.561Z,96778.50
2022-11-23T01:27:55.243Z,96772.50
2022-11-23T01:30:26.481Z,96777.06
2022-11-23T01:32:56.716Z,96775.09
2022-11-23T01:35:27.944Z,96775.03
2022-11-23T01:37:58.459Z,96778.59
2022-11-23T01:40:28.528Z,96788.78
2022-11-23T01:43:03.835Z,96785.66
2022-11-23T01:46:02.064Z,96790.25
2022-11-23T01:48:36.874Z,96787.22
2022-11-23T01:51:13.767Z,96792.84
2022-11-23T01:53:45.166Z,96793.81
2022-11-23T01:56:26.275Z,96792.56
2022-11-23T01:59:04.605Z,96799.00
2022-11-23T02:01:34.863Z,96789.03
2022-11-23T02:04:06.303Z,96793.69
2022-11-23T02:06:37.747Z,96790.25
2022-11-23T02:09:08.658Z,96796.91
2022-11-23T02:11:38.770Z,96793.59
2022-11-23T02:14:12.351Z,96795.50
2022-11-23T02:16:43.353Z,96802.25
2022-11-23T02:19:28.693Z,96795.25
2022-11-23T02:22:00.361Z,96797.69
2022-11-23T02:24:39.968Z,96796.81
2022-11-23T02:27:18.658Z,96792.81
2022-11-23T02:29:50.916Z,96798.38
2022-11-23T02:32:27.557Z,96792.72
2022-11-23T02:34:59.421Z,96799.19
2022-11-23T02:37:30.175Z,96803.75
2022-11-23T02:40:04.440Z,96801.41
2022-11-23T02:42:41.659Z,96803.94
2022-11-23T02:45:26.004Z,96808.19
2022-11-23T02:47:56.752Z,96809.00
2022-11-23T02:50:27.163Z,96809.47
2022-11-23T02:52:57.297Z,96801.16
2022-11-23T02:55:27.682Z,96802.88
2022-11-23T02:58:00.365Z,96805.38
2022-11-23T03:00:31.640Z,96813.41
2022-11-23T03:03:05.740Z,96817.31
2022-11-23T03:05:37.422Z,96813.22
2022-11-23T03:08:09.635Z,96815.41
2022-11-23T03:10:41.442Z,96819.31
2022-11-23T03:13:14.704Z,96814.63
2022-11-23T03:15:45.635Z,96806.31
2022-11-23T03:18:15.773Z,96808.38
2022-11-23T03:20:46.641Z,96804.00
2022-11-23T03:23:16.684Z,96812.91
2022-11-23T03:25:48.741Z,96804.59
2022-11-23T03:28:21.378Z,96805.56
2022-11-23T03:30:51.716Z,96806.50
2022-11-23T03:33:22.278Z,96798.03
2022-11-23T03:35:53.253Z,96789.75
2022-11-23T03:38:26.993Z,96796.78
2022-11-23T03:40:57.450Z,96803.84
2022-11-23T03:43:43.473Z,96803.66
2022-11-23T03:46:13.457Z,96797.06
2022-11-23T03:48:43.547Z,96802.81
2022-11-23T03:51:14.093Z,96802.94
2022-11-23T03:53:44.097Z,96802.44
2022-11-23T03:56:14.282Z,96803.06
2022-11-23T03:58:50.755Z,96798.78
2022-11-23T04:01:22.094Z,96798.00
2022-11-23T04:03:59.167Z,96797.81
2022-11-23T04:06:48.585Z,96796.06
2022-11-23T04:09:25.339Z,96787.06
2022-11-23T04:12:15.339Z,96785.81
2022-11-23T04:14:49.303Z,96782.97
2022-11-23T04:17:19.374Z,96782.44
2022-11-23T04:19:49.460Z,96789.78
2022-11-23T04:22:19.718Z,96787.22
2022-11-23T04:24:50.823Z,96786.56
2022-11-23T04:27:21.781Z,96787.47
2022-11-23T04:29:54.488Z,96788.34
2022-11-23T04:32:24.563Z,96787.84
2022-11-23T04:34:54.709Z,96791.31
2022-11-23T04:37:25.039Z,96784.56
2022-11-23T04:39:55.885Z,96783.94
2022-11-23T04:42:43.637Z,96785.25
2022-11-23T04:45:16.698Z,96782.19
2022-11-23T04:47:47.292Z,96785.34
2022-11-23T04:50:19.693Z,96776.06
2022-11-23T04:52:54.180Z,96787.34
2022-11-23T04:55:29.126Z,96778.13
2022-11-23T04:58:01.333Z,96780.53
2022-11-23T05:00:36.849Z,96775.94
2022-11-23T05:03:09.688Z,96779.78
2022-11-23T05:05:43.465Z,96781.72
2022-11-23T05:08:14.113Z,96784.25
2022-11-23T05:10:53.515Z,96780.06
2022-11-23T05:13:23.614Z,96786.53
2022-11-23T05:15:56.715Z,96786.28
2022-11-23T05:18:31.060Z,96785.84
2022-11-23T05:21:01.604Z,96778.81
2022-11-23T05:23:32.673Z,96784.28
2022-11-23T05:26:03.121Z,96783.66
2022-11-23T05:28:41.988Z,96781.94
2022-11-23T05:31:19.522Z,96773.75
2022-11-23T05:33:50.725Z,96768.88
2022-11-23T05:36:28.422Z,96764.69
2022-11-23T05:38:58.512Z,96768.13
2022-11-23T05:41:33.728Z,96765.78
2022-11-23T05:44:05.809Z,96767.06
2022-11-23T05:46:38.534Z,96774.16
2022-11-23T05:49:08.678Z,96768.81
2022-11-23T05:51:41.099Z,96769.25
2022-11-23T05:54:12.190Z,96763.47
2022-11-23T05:56:46.713Z,96763.16
2022-11-23T05:59:20.308Z,96773.50
2022-11-23T06:01:57.960Z,96764.84
2022-11-23T06:04:33.217Z,96770.00
2022-11-23T06:07:04.333Z,96771.06
2022-11-23T06:09:44.817Z,96774.19
2022-11-23T06:12:15.571Z,96765.56
2022-11-23T06:14:45.624Z,96765.72
2022-11-23T06:17:20.815Z,96763.66
2022-11-23T06:19:52.972Z,96761.47
2022-11-23T06:22:23.231Z,96769.81
2022-11-23T06:25:01.055Z,96769.47
2022-11-23T06:27:43.169Z,96763.69
2022-11-23T06:30:20.765Z,96776.88
2022-11-23T06:32:54.057Z,96771.06
2022-11-23T06:35:26.230Z,96773.47
2022-11-23T06:37:56.416Z,96774.13
2022-11-23T06:40:26.807Z,96770.84
2022-11-23T06:43:02.014Z,96768.88
2022-11-23T06:45:40.940Z,96772.81
2022-11-23T06:48:17.291Z,96782.84
2022-11-23T06:50:50.553Z,96786.03
2022-11-23T06:53:22.655Z,96794.19
2022-11-23T06:56:01.835Z,96787.00
2022-11-23T06:58:34.217Z,96791.72
2022-11-23T07:01:09.532Z,96789.22
2022-11-23T07:03:48.283Z,96797.84
2022-11-23T07:06:25.573Z,96798.03
2022-11-23T07:08:58.814Z,96796.44
2022-11-23T07:11:40.208Z,96792.84
2022-11-23T07:14:10.377Z,96807.41
2022-11-23T07:16:42.811Z,96805.69
2022-11-23T07:19:16.864Z,96816.81
2022-11-23T07:21:48.637Z,96808.31
2022-11-23T07:24:19.550Z,96813.66
2022-11-23T07:26:49.760Z,96813.97
2022-11-23T07:29:19.756Z,96812.53
2022-11-23T07:31:49.881Z,96815.69
2022-11-23T07:34:22.689Z,96815.47
2022-11-23T07:36:52.816Z,96819.56
2022-11-23T07:39:36.393Z,96812.63
2022-11-23T07:42:31.758Z,96818.56
2022-11-23T07:45:03.512Z,96816.69
2022-11-23T07:47:33.699Z,96819.81
2022-11-23T07:50:07.076Z,96820.06
2022-11-23T07:52:38.438Z,96819.56
2022-11-23T07:55:09.966Z,96824.22
2022-11-23T07:57:40.209Z,96826.47
2022-11-23T08:00:13.300Z,96826.75
2022-11-23T08:03:04.321Z,96829.50
2022-11-23T08:05:37.954Z,96826.56
2022-11-23T08:08:08.557Z,96827.56
2022-11-23T08:10:45.138Z,96827.19
2022-11-23T08:13:17.328Z,96828.25
2022-11-23T08:15:53.293Z,96830.22
2022-11-23T08:18:25.330Z,96833.13
2022-11-23T08:21:01.804Z,96825.69
2022-11-23T08:23:32.619Z,96826.06
2022-11-23T08:26:10.344Z,96823.81
2022-11-23T08:28:43.372Z,96830.09
2022-11-23T08:31:15.185Z,96838.69
2022-11-23T08:33:45.561Z,96832.56
2022-11-23T08:36:18.503Z,96831.00
2022-11-23T08:38:51.414Z,96830.66
2022-11-23T08:41:21.820Z,96832.28
2022-11-23T08:43:52.163Z,96835.91
2022-11-23T08:46:22.248Z,96828.34
2022-11-23T08:48:52.225Z,96827.41
2022-11-23T08:51:25.241Z,96826.88
2022-11-23T08:53:55.414Z,96829.22
2022-11-23T08:56:25.398Z,96830.44
2022-11-23T08:58:55.423Z,96834.47
2022-11-23T09:01:25.532Z,96836.69
2022-11-23T09:03:55.634Z,96830.59
2022-11-23T09:06:29.245Z,96832.50
2022-11-23T09:08:59.391Z,96841.44
2022-11-23T09:11:29.864Z,96838.94
2022-11-23T09:13:59.994Z,96840.13
2022-11-23T09:16:33.916Z,96836.56
2022-11-23T09:19:04.488Z,96834.22
2022-11-23T09:21:39.248Z,96832.78
2022-11-23T09:24:10.064Z,96834.09
2022-11-23T09:26:40.237Z,96834.88
2022-11-23T09:29:11.550Z,96831.63
2022-11-23T09:31:42.421Z,96839.97
2022-11-23T09:34:15.568Z,96841.47
2022-11-23T09:36:48.255Z,96835.69
2022-11-23T09:39:18.708Z,96831.88
2022-11-23T09:42:10.729Z,96839.78
2022-11-23T09:45:10.093Z,96835.78
2022-11-23T09:48:12.523Z,96829.19
2022-11-23T09:50:53.027Z,96830.75
2022-11-23T09:53:36.334Z,96827.31
2022-11-23T09:56:06.955Z,96835.13
2022-11-23T09:58:43.259Z,96824.88
2022-11-23T10:01:18.836Z,96819.38
2022-11-23T10:03:49.632Z,96820.63
2022-11-23T10:06:25.650Z,96823.38
2022-11-23T10:09:24.832Z,96816.00
2022-11-23T10:12:17.874Z,96812.28
2022-11-23T10:15:05.737Z,96815.19
2022-11-23T10:18:10.890Z,96807.56
2022-11-23T10:20:56.672Z,96806.19
2022-11-23T10:23:49.083Z,96800.97
2022-11-23T10:26:26.357Z,96800.38
2022-11-23T10:28:58.818Z,96800.56
2022-11-23T10:31:29.006Z,96800.97
2022-11-23T10:34:11.123Z,96798.06
2022-11-23T10:36:41.898Z,96798.06
2022-11-23T10:39:25.641Z,96807.78
2022-11-23T10:42:06.378Z,96802.53
2022-11-23T10:44:43.044Z,96796.09
2022-11-23T10:47:13.137Z,96795.13
2022-11-23T10:50:01.125Z,96795.69
2022-11-23T10:52:34.202Z,96792.00
2022-11-23T10:55:09.275Z,96799.38
2022-11-23T10:57:48.847Z,96799.00
2022-11-23T11:00:30.053Z,96792.97
2022-11-23T11:03:03.445Z,96792.81
2022-11-23T11:06:07.369Z,96780.13
2022-11-23T11:08:33.844Z,96777.59
2022-11-23T11:11:07.784Z,96783.03
2022-11-23T11:13:47.688Z,96783.19
2022-11-23T11:16:26.047Z,96782.19
2022-11-23T11:18:56.608Z,96777.50
2022-11-23T11:21:34.926Z,96770.50
2022-11-23T11:24:09.888Z,96768.13
2022-11-23T11:29:41.361Z,96765.78
2022-11-23T11:32:17.833Z,96769.44
2022-11-23T11:34:54.977Z,96769.41
2022-11-23T11:37:37.011Z,96761.72
2022-11-23T11:40:33.268Z,96760.53
2022-11-23T11:43:08.636Z,96758.56
2022-11-23T11:46:13.080Z,96758.84
2022-11-23T11:51:31.738Z,96746.66
2022-11-23T11:54:09.260Z,96748.13
2022-11-23T11:56:45.080Z,96748.13
2022-11-23T12:05:01.900Z,96739.00
2022-11-23T12:07:36.267Z,96739.63
2022-11-23T12:10:18.094Z,96736.56
2022-11-23T12:12:48.766Z,96734.69
2022-11-23T12:47:51.786Z,96716.16
2022-11-23T12:53:47.038Z,96703.94
2022-11-23T12:56:44.980Z,96698.16
2022-11-23T12:59:19.028Z,96694.31
2022-11-23T13:02:00.082Z,96693.97
2022-11-23T13:10:59.749Z,96687.22
2022-11-23T13:19:52.082Z,96686.81
2022-11-23T13:25:31.164Z,96675.81
2022-11-23T13:28:07.542Z,96669.53
2022-11-23T13:37:11.279Z,96668.09
2022-11-23T13:45:36.958Z,96663.81
2022-11-23T13:48:55.014Z,96657.88
2022-11-23T13:54:03.110Z,96651.34
2022-11-23T13:56:38.184Z,96646.81
2022-11-23T13:59:37.548Z,96629.72
2022-11-23T14:02:33.035Z,96636.81
2022-11-23T14:10:39.369Z,96634.53
2022-11-23T14:13:22.613Z,96628.72
2022-11-23T14:16:01.482Z,96622.53
2022-11-23T14:19:09.247Z,96616.38
2022-11-23T14:21:53.186Z,96617.19
2022-11-23T14:25:05.272Z,96610.78
2022-11-23T14:31:01.939Z,96617.28
2022-11-23T14:36:49.579Z,96605.84
2022-11-23T14:39:56.436Z,96606.06
2022-11-23T14:42:30.509Z,96606.41
2022-11-23T14:45:07.510Z,96615.47
2022-11-23T14:47:37.628Z,96604.41
2022-11-23T14:50:08.975Z,96601.94
2022-11-23T14:52:41.610Z,96602.09
2022-11-23T14:55:23.028Z,96600.00
2022-11-23T15:06:31.487Z,96588.44
2022-11-23T15:11:49.191Z,96586.75
2022-11-23T15:14:29.330Z,96589.75
2022-11-23T15:16:59.392Z,96581.03
2022-11-23T15:19:32.145Z,96576.56
2022-11-23T15:22:03.343Z,96579.53
2022-11-23T15:24:33.620Z,96580.13
2022-11-23T15:27:12.704Z,96584.66
2022-11-23T15:29:43.191Z,96584.81
2022-11-23T15:32:39.366Z,96580.94
2022-11-23T15:37:53.387Z,96589.09
2022-11-23T15:40:33.845Z,96595.31
2022-11-23T15:43:04.230Z,96588.88
2022-11-23T15:48:42.725Z,96585.00
2022-11-23T15:51:30.853Z,96572.75
2022-11-23T15:54:04.188Z,96575.50
2022-11-23T15:56:37.395Z,96585.00
2022-11-23T16:02:09.618Z,96588.31
2022-11-23T16:04:43.840Z,96589.47
2022-11-23T16:07:20.802Z,96586.53
2022-11-23T16:09:53.916Z,96590.44
2022-11-23T16:12:30.821Z,96599.78
2022-11-23T16:15:41.492Z,96606.19
2022-11-23T16:18:46.369Z,96606.03
2022-11-23T16:24:01.127Z,96621.16
2022-11-23T16:26:34.621Z,96623.16
2022-11-23T16:29:05.922Z,96625.06
2022-11-23T16:31:42.247Z,96634.38
2022-11-23T16:34:16.233Z,96630.66
2022-11-23T16:36:46.418Z,96637.81
2022-11-23T16:39:19.129Z,96635.09
2022-11-23T16:41:49.236Z,96644.78
2022-11-23T16:44:19.482Z,96654.28
2022-11-23T16:46:50.348Z,96658.00
2022-11-23T16:49:23.507Z,96661.06
2022-11-23T16:51:57.545Z,96660.28
2022-11-23T16:54:30.305Z,96664.34
2022-11-23T16:57:00.374Z,96676.59
2022-11-23T16:59:30.485Z,96694.56
2022-11-23T17:02:01.309Z,96704.91
2022-11-23T17:04:32.440Z,96710.59
2022-11-23T17:07:03.758Z,96718.78
2022-11-23T17:09:36.618Z,96716.44
2022-11-23T17:12:14.726Z,96719.19
2022-11-23T17:14:45.857Z,96731.31
2022-11-23T17:17:22.290Z,96740.25
2022-11-23T17:19:53.542Z,96748.44
2022-11-23T17:22:24.207Z,96748.81
2022-11-23T17:24:56.944Z,96755.03
2022-11-23T17:27:28.497Z,96757.56
2022-11-23T17:30:03.295Z,96764.56
2022-11-23T17:32:33.374Z,96762.41
2022-11-23T17:35:03.405Z,96763.00
2022-11-23T17:37:33.585Z,96769.38
2022-11-23T17:40:06.885Z,96764.94
2022-11-23T17:42:36.946Z,96770.16
2022-11-23T17:45:09.375Z,96786.09
2022-11-23T17:47:40.824Z,96785.50
2022-11-23T17:50:17.884Z,96778.69
2022-11-23T17:52:48.242Z,96795.41
2022-11-23T17:55:21.149Z,96798.88
2022-11-23T17:57:51.276Z,96800.03
2022-11-23T18:00:24.876Z,96803.19
2022-11-23T18:02:55.998Z,96807.28
2022-11-23T18:05:25.989Z,96808.03
2022-11-23T18:07:56.075Z,96817.16
2022-11-23T18:10:28.908Z,96813.66
2022-11-23T18:12:59.091Z,96828.06
2022-11-23T18:15:30.376Z,96835.69
2022-11-23T18:18:04.678Z,96835.50
2022-11-23T18:20:35.008Z,96838.59
2022-11-23T18:23:05.240Z,96831.59
2022-11-23T18:25:37.821Z,96833.19
2022-11-23T18:28:08.283Z,96836.16
2022-11-23T18:30:38.391Z,96841.38
2022-11-23T18:33:09.570Z,96849.47
2022-11-23T18:35:40.036Z,96844.81
2022-11-23T18:38:10.241Z,96853.38
2022-11-23T18:40:43.282Z,96854.53
2022-11-23T18:43:13.389Z,96851.41
2022-11-23T18:45:43.909Z,96857.66
2022-11-23T18:48:14.349Z,96853.38
2022-11-23T18:50:44.428Z,96860.38
2022-11-23T18:53:15.017Z,96869.75
2022-11-23T18:55:47.721Z,96868.94
2022-11-23T18:58:18.281Z,96872.31
2022-11-23T19:00:48.514Z,96867.88
2022-11-23T19:03:18.568Z,96877.97
2022-11-23T19:05:48.705Z,96876.19
2022-11-23T19:08:18.902Z,96882.22
2022-11-23T19:10:51.736Z,96882.22
2022-11-23T19:13:22.081Z,96896.63
2022-11-23T19:15:52.185Z,96895.25
2022-11-23T19:18:22.506Z,96891.94
2022-11-23T19:20:53.388Z,96908.69
2022-11-23T19:23:29.431Z,96897.81
2022-11-23T19:26:06.926Z,96899.66
2022-11-23T19:28:37.776Z,96905.56
2022-11-23T19:31:16.196Z,96918.63
2022-11-23T19:33:47.720Z,96917.25
2022-11-23T19:36:20.937Z,96930.50
2022-11-23T19:38:51.679Z,96923.34
2022-11-23T19:41:29.856Z,96935.97
2022-11-23T19:44:02.914Z,96946.34
2022-11-23T19:46:34.421Z,96944.97
2022-11-23T19:49:04.803Z,96953.72
2022-11-23T19:51:35.009Z,96953.91
2022-11-23T19:54:06.189Z,96967.53
2022-11-23T19:56:39.941Z,96965.63
2022-11-23T19:59:09.951Z,96968.16
2022-11-23T20:01:40.462Z,96977.13
2022-11-23T20:04:12.311Z,96978.81
2022-11-23T20:06:44.825Z,96987.75
2022-11-23T20:09:19.381Z,96991.66
2022-11-23T20:11:52.483Z,96996.78
2022-11-23T20:14:22.829Z,97000.50
2022-11-23T20:16:52.871Z,97007.59
2022-11-23T20:19:22.928Z,97010.75
2022-11-23T20:21:53.359Z,97013.66
2022-11-23T20:24:23.433Z,97022.75
2022-11-23T20:26:56.080Z,97028.19
2022-11-23T20:29:27.950Z,97033.81
2022-11-23T20:31:58.167Z,97049.06
2022-11-23T20:34:28.561Z,97059.50
2022-11-23T20:37:00.087Z,97060.63
2022-11-23T20:39:30.150Z,97070.78
2022-11-23T20:42:02.860Z,97079.75
2022-11-23T20:44:34.220Z,97088.88
2022-11-23T20:47:04.661Z,97090.22
2022-11-23T20:49:35.209Z,97096.97
2022-11-23T20:52:05.417Z,97105.72
2022-11-23T20:54:36.173Z,97115.56
2022-11-23T20:57:09.217Z,97111.16
2022-11-23T20:59:39.238Z,97123.22
2022-11-23T21:02:11.773Z,97128.41
2022-11-23T21:04:41.908Z,97131.31
2022-11-23T21:07:12.125Z,97140.38
2022-11-23T21:09:42.175Z,97143.28
2022-11-23T21:12:27.289Z,97156.63
2022-11-23T21:14:57.335Z,97161.25
2022-11-23T21:17:27.348Z,97166.38
2022-11-23T21:19:57.407Z,97168.19
2022-11-23T21:22:27.466Z,97170.91
2022-11-23T21:24:57.513Z,97182.84
2022-11-23T21:27:30.336Z,97179.00
2022-11-23T21:30:01.086Z,97180.47
2022-11-23T21:32:31.196Z,97177.44
2022-11-23T21:35:01.248Z,97186.41
2022-11-23T21:37:31.586Z,97189.97
2022-11-23T21:40:01.654Z,97197.91
2022-11-23T21:42:34.406Z,97199.75
2022-11-23T21:45:04.824Z,97208.38
2022-11-23T21:47:35.645Z,97211.97
2022-11-23T21:50:06.015Z,97205.94
2022-11-23T21:52:36.097Z,97206.09
2022-11-23T21:55:06.592Z,97216.69
2022-11-23T21:57:39.218Z,97221.34
2022-11-23T22:00:12.436Z,97240.06
2022-11-23T22:02:42.916Z,97234.56
2022-11-23T22:05:12.928Z,97244.75
2022-11-23T22:07:55.124Z,97249.72
2022-11-23T22:10:33.025Z,97262.16
2022-11-23T22:13:05.671Z,97265.25
2022-11-23T22:15:35.661Z,97266.97
2022-11-23T22:18:06.029Z,97266.03
2022-11-23T22:20:37.255Z,97273.50
2022-11-23T22:23:07.388Z,97282.69
2022-11-23T22:25:37.403Z,97275.13
2022-11-23T22:28:10.522Z,97279.25
2022-11-23T22:30:40.681Z,97286.34
2022-11-23T22:33:10.820Z,97293.09
2022-11-23T22:35:40.846Z,97285.22
2022-11-23T22:38:10.860Z,97294.78
2022-11-23T22:40:41.014Z,97295.81
2022-11-23T22:43:13.626Z,97298.53
2022-11-23T22:45:43.778Z,97296.09
2022-11-23T22:48:13.895Z,97296.81
2022-11-23T22:50:43.980Z,97307.09
2022-11-23T22:53:14.006Z,97305.28
2022-11-23T22:55:44.006Z,97309.34
2022-11-23T22:58:16.719Z,97312.31
2022-11-23T23:00:47.028Z,97318.94
2022-11-23T23:03:17.382Z,97322.22
2022-11-23T23:05:57.293Z,97324.13
2022-11-23T23:08:29.218Z,97324.22
2022-11-23T23:10:59.612Z,97322.38
2022-11-23T23:13:32.591Z,97327.09
2022-11-23T23:16:08.332Z,97334.81
2022-11-23T23:18:38.397Z,97335.31
2022-11-23T23:21:12.519Z,97344.34
2022-11-23T23:23:44.378Z,97345.88
2022-11-23T23:26:17.273Z,97342.28
2022-11-23T23:28:50.640Z,97352.03
2022-11-23T23:31:20.895Z,97359.22
2022-11-23T23:33:51.326Z,97356.75
2022-11-23T23:36:24.027Z,97360.81
2022-11-23T23:38:55.317Z,97372.81
2022-11-23T23:41:25.551Z,97363.75
2022-11-23T23:43:58.384Z,97372.91
2022-11-23T23:46:29.011Z,97372.13
2022-11-23T23:48:58.975Z,97370.81
2022-11-23T23:51:29.585Z,97375.38
2022-11-23T23:54:00.976Z,97379.09
2022-11-23T23:56:32.353Z,97379.63
2022-11-23T23:59:05.025Z,97372.84
